sensor_id;sensor_type;location;lat;lon;timestamp;P1;durP1;ratioP1;P2;durP2;ratioP2
66575;SDS011;53428;47.686;16.584;2023-11-22T00:00:27;13.18;;;7.60;;
66575;SDS011;53428;47.686;16.584;2023-11-22T00:05:26;12.32;;;8.13;;
66575;SDS011;53428;47.686;16.584;2023-11-22T00:10:25;14.15;;;7.30;;
66575;SDS011;53428;47.686;16.584;2023-11-22T00:15:24;13.07;;;8.38;;
66575;SDS011;53428;47.686;16.584;2023-11-22T00:20:24;12.43;;;8.38;;
66575;SDS011;53428;47.686;16.584;2023-11-22T00:25:23;14.70;;;8.27;;
66575;SDS011;53428;47.686;16.584;2023-11-22T00:30:23;11.95;;;6.90;;
66575;SDS011;53428;47.686;16.584;2023-11-22T00:35:22;12.45;;;7.93;;
66575;SDS011;53428;47.686;16.584;2023-11-22T00:40:21;10.32;;;6.53;;
66575;SDS011;53428;47.686;16.584;2023-11-22T00:45:21;10.38;;;7.32;;
66575;SDS011;53428;47.686;16.584;2023-11-22T00:50:20;11.23;;;6.72;;
66575;SDS011;53428;47.686;16.584;2023-11-22T00:55:19;12.70;;;6.88;;
66575;SDS011;53428;47.686;16.584;2023-11-22T01:00:19;14.43;;;6.57;;
66575;SDS011;53428;47.686;16.584;2023-11-22T01:05:18;11.80;;;6.90;;
66575;SDS011;53428;47.686;16.584;2023-11-22T01:10:17;8.88;;;6.68;;
66575;SDS011;53428;47.686;16.584;2023-11-22T01:15:17;12.63;;;6.82;;
66575;SDS011;53428;47.686;16.584;2023-11-22T01:20:16;16.45;;;7.45;;
66575;SDS011;53428;47.686;16.584;2023-11-22T01:25:16;13.80;;;8.07;;
66575;SDS011;53428;47.686;16.584;2023-11-22T01:30:15;15.80;;;9.02;;
66575;SDS011;53428;47.686;16.584;2023-11-22T01:35:15;20.38;;;9.75;;
66575;SDS011;53428;47.686;16.584;2023-11-22T01:40:14;18.77;;;11.02;;
66575;SDS011;53428;47.686;16.584;2023-11-22T01:45:14;17.95;;;11.10;;
66575;SDS011;53428;47.686;16.584;2023-11-22T01:50:13;16.10;;;9.95;;
66575;SDS011;53428;47.686;16.584;2023-11-22T01:55:13;20.85;;;10.50;;
66575;SDS011;53428;47.686;16.584;2023-11-22T02:00:15;17.77;;;10.50;;
66575;SDS011;53428;47.686;16.584;2023-11-22T02:05:14;22.95;;;12.73;;
66575;SDS011;53428;47.686;16.584;2023-11-22T02:10:13;19.50;;;11.10;;
66575;SDS011;53428;47.686;16.584;2023-11-22T02:15:13;19.88;;;11.27;;
66575;SDS011;53428;47.686;16.584;2023-11-22T02:20:12;21.80;;;12.20;;
66575;SDS011;53428;47.686;16.584;2023-11-22T02:25:11;21.90;;;12.98;;
66575;SDS011;53428;47.686;16.584;2023-11-22T02:30:11;19.67;;;12.43;;
66575;SDS011;53428;47.686;16.584;2023-11-22T02:35:10;23.40;;;13.02;;
66575;SDS011;53428;47.686;16.584;2023-11-22T02:40:27;22.80;;;14.50;;
66575;SDS011;53428;47.686;16.584;2023-11-22T02:45:28;22.92;;;13.70;;
66575;SDS011;53428;47.686;16.584;2023-11-22T02:50:27;25.58;;;13.68;;
66575;SDS011;53428;47.686;16.584;2023-11-22T02:55:26;32.03;;;12.32;;
66575;SDS011;53428;47.686;16.584;2023-11-22T03:00:25;23.48;;;12.82;;
66575;SDS011;53428;47.686;16.584;2023-11-22T03:05:25;22.77;;;11.73;;
66575;SDS011;53428;47.686;16.584;2023-11-22T03:10:24;18.40;;;11.35;;
66575;SDS011;53428;47.686;16.584;2023-11-22T03:15:23;19.13;;;10.77;;
66575;SDS011;53428;47.686;16.584;2023-11-22T03:20:22;21.60;;;9.85;;
66575;SDS011;53428;47.686;16.584;2023-11-22T03:25:21;15.38;;;8.02;;
66575;SDS011;53428;47.686;16.584;2023-11-22T03:30:22;18.88;;;9.50;;
66575;SDS011;53428;47.686;16.584;2023-11-22T03:35:21;15.25;;;9.15;;
66575;SDS011;53428;47.686;16.584;2023-11-22T03:40:20;22.85;;;9.77;;
66575;SDS011;53428;47.686;16.584;2023-11-22T03:45:20;13.80;;;9.02;;
66575;SDS011;53428;47.686;16.584;2023-11-22T03:50:19;15.13;;;8.52;;
66575;SDS011;53428;47.686;16.584;2023-11-22T03:55:18;12.68;;;7.07;;
66575;SDS011;53428;47.686;16.584;2023-11-22T04:00:18;18.15;;;8.70;;
66575;SDS011;53428;47.686;16.584;2023-11-22T04:05:18;11.88;;;8.02;;
66575;SDS011;53428;47.686;16.584;2023-11-22T04:10:18;12.05;;;7.28;;
66575;SDS011;53428;47.686;16.584;2023-11-22T04:15:18;14.00;;;8.15;;
66575;SDS011;53428;47.686;16.584;2023-11-22T04:20:17;10.60;;;7.55;;
66575;SDS011;53428;47.686;16.584;2023-11-22T04:25:16;16.92;;;8.32;;
66575;SDS011;53428;47.686;16.584;2023-11-22T04:30:16;11.10;;;7.30;;
66575;SDS011;53428;47.686;16.584;2023-11-22T04:35:16;10.50;;;7.15;;
66575;SDS011;53428;47.686;16.584;2023-11-22T04:40:15;12.60;;;7.57;;
66575;SDS011;53428;47.686;16.584;2023-11-22T04:45:14;13.55;;;8.18;;
66575;SDS011;53428;47.686;16.584;2023-11-22T04:50:14;9.52;;;7.10;;
66575;SDS011;53428;47.686;16.584;2023-11-22T04:55:13;13.52;;;7.85;;
66575;SDS011;53428;47.686;16.584;2023-11-22T05:00:12;10.60;;;7.53;;
66575;SDS011;53428;47.686;16.584;2023-11-22T05:05:12;10.93;;;7.20;;
66575;SDS011;53428;47.686;16.584;2023-11-22T05:10:11;13.68;;;8.55;;
66575;SDS011;53428;47.686;16.584;2023-11-22T05:15:11;14.85;;;8.00;;
66575;SDS011;53428;47.686;16.584;2023-11-22T05:20:10;21.23;;;8.73;;
66575;SDS011;53428;47.686;16.584;2023-11-22T05:25:09;14.43;;;7.55;;
66575;SDS011;53428;47.686;16.584;2023-11-22T05:30:10;12.52;;;8.38;;
66575;SDS011;53428;47.686;16.584;2023-11-22T05:35:10;14.20;;;9.30;;
66575;SDS011;53428;47.686;16.584;2023-11-22T05:40:09;13.23;;;7.68;;
66575;SDS011;53428;47.686;16.584;2023-11-22T05:45:09;12.18;;;7.65;;
66575;SDS011;53428;47.686;16.584;2023-11-22T05:50:08;15.38;;;8.57;;
66575;SDS011;53428;47.686;16.584;2023-11-22T05:55:08;16.75;;;8.43;;
66575;SDS011;53428;47.686;16.584;2023-11-22T06:00:07;11.05;;;7.18;;
66575;SDS011;53428;47.686;16.584;2023-11-22T06:05:07;17.08;;;8.40;;
66575;SDS011;53428;47.686;16.584;2023-11-22T06:10:06;14.57;;;7.70;;
66575;SDS011;53428;47.686;16.584;2023-11-22T06:15:06;14.25;;;7.95;;
66575;SDS011;53428;47.686;16.584;2023-11-22T06:20:06;12.57;;;7.22;;
66575;SDS011;53428;47.686;16.584;2023-11-22T06:25:08;15.23;;;7.85;;
66575;SDS011;53428;47.686;16.584;2023-11-22T06:30:09;11.63;;;6.82;;
66575;SDS011;53428;47.686;16.584;2023-11-22T06:35:09;10.05;;;6.97;;
66575;SDS011;53428;47.686;16.584;2023-11-22T06:40:10;10.50;;;6.10;;
66575;SDS011;53428;47.686;16.584;2023-11-22T06:45:13;14.18;;;7.07;;
66575;SDS011;53428;47.686;16.584;2023-11-22T06:50:12;13.15;;;7.53;;
66575;SDS011;53428;47.686;16.584;2023-11-22T06:55:11;12.35;;;6.22;;
66575;SDS011;53428;47.686;16.584;2023-11-22T07:00:11;13.60;;;7.97;;
66575;SDS011;53428;47.686;16.584;2023-11-22T07:05:11;11.25;;;6.47;;
66575;SDS011;53428;47.686;16.584;2023-11-22T07:10:10;9.70;;;6.10;;
66575;SDS011;53428;47.686;16.584;2023-11-22T07:15:10;15.77;;;7.68;;
66575;SDS011;53428;47.686;16.584;2023-11-22T07:20:09;11.00;;;6.35;;
66575;SDS011;53428;47.686;16.584;2023-11-22T07:25:14;12.30;;;7.32;;
66575;SDS011;53428;47.686;16.584;2023-11-22T07:30:23;11.50;;;7.32;;
66575;SDS011;53428;47.686;16.584;2023-11-22T07:35:26;15.20;;;8.77;;
66575;SDS011;53428;47.686;16.584;2023-11-22T07:40:27;16.27;;;8.60;;
66575;SDS011;53428;47.686;16.584;2023-11-22T07:45:26;11.48;;;7.30;;
66575;SDS011;53428;47.686;16.584;2023-11-22T07:50:26;11.50;;;6.63;;
66575;SDS011;53428;47.686;16.584;2023-11-22T07:55:26;11.88;;;6.63;;
66575;SDS011;53428;47.686;16.584;2023-11-22T08:00:25;16.75;;;8.85;;
66575;SDS011;53428;47.686;16.584;2023-11-22T08:05:24;15.82;;;7.60;;
66575;SDS011;53428;47.686;16.584;2023-11-22T08:10:24;14.10;;;8.15;;
66575;SDS011;53428;47.686;16.584;2023-11-22T08:15:24;11.63;;;7.78;;
66575;SDS011;53428;47.686;16.584;2023-11-22T08:20:23;12.82;;;7.78;;
66575;SDS011;53428;47.686;16.584;2023-11-22T08:25:24;13.50;;;8.68;;
66575;SDS011;53428;47.686;16.584;2023-11-22T08:30:23;13.30;;;7.97;;
66575;SDS011;53428;47.686;16.584;2023-11-22T08:35:22;14.07;;;7.45;;
66575;SDS011;53428;47.686;16.584;2023-11-22T08:40:22;14.73;;;8.60;;
66575;SDS011;53428;47.686;16.584;2023-11-22T08:45:21;11.70;;;8.18;;
66575;SDS011;53428;47.686;16.584;2023-11-22T08:50:20;10.65;;;6.90;;
66575;SDS011;53428;47.686;16.584;2023-11-22T08:55:21;20.40;;;9.60;;
66575;SDS011;53428;47.686;16.584;2023-11-22T09:00:21;22.98;;;7.97;;
66575;SDS011;53428;47.686;16.584;2023-11-22T09:05:26;13.40;;;7.88;;
66575;SDS011;53428;47.686;16.584;2023-11-22T09:10:27;22.73;;;8.23;;
66575;SDS011;53428;47.686;16.584;2023-11-22T09:15:26;15.93;;;8.13;;
66575;SDS011;53428;47.686;16.584;2023-11-22T09:20:27;13.05;;;8.02;;
66575;SDS011;53428;47.686;16.584;2023-11-22T09:25:27;13.02;;;8.20;;
66575;SDS011;53428;47.686;16.584;2023-11-22T09:30:27;12.98;;;7.85;;
66575;SDS011;53428;47.686;16.584;2023-11-22T09:35:38;17.50;;;9.85;;
66575;SDS011;53428;47.686;16.584;2023-11-22T09:40:41;21.23;;;9.10;;
66575;SDS011;53428;47.686;16.584;2023-11-22T09:45:42;19.17;;;9.38;;
66575;SDS011;53428;47.686;16.584;2023-11-22T09:50:49;16.65;;;9.52;;
66575;SDS011;53428;47.686;16.584;2023-11-22T09:56:16;17.23;;;9.75;;
66575;SDS011;53428;47.686;16.584;2023-11-22T10:01:17;17.77;;;9.93;;
66575;SDS011;53428;47.686;16.584;2023-11-22T10:06:17;14.07;;;8.85;;
66575;SDS011;53428;47.686;16.584;2023-11-22T10:11:17;16.33;;;8.93;;
66575;SDS011;53428;47.686;16.584;2023-11-22T10:16:17;14.32;;;9.35;;
66575;SDS011;53428;47.686;16.584;2023-11-22T10:21:26;11.48;;;6.75;;
66575;SDS011;53428;47.686;16.584;2023-11-22T10:26:30;12.68;;;7.43;;
66575;SDS011;53428;47.686;16.584;2023-11-22T10:31:29;11.10;;;7.32;;
66575;SDS011;53428;47.686;16.584;2023-11-22T10:36:29;10.25;;;6.63;;
66575;SDS011;53428;47.686;16.584;2023-11-22T10:41:28;12.63;;;6.40;;
66575;SDS011;53428;47.686;16.584;2023-11-22T10:46:28;9.48;;;5.10;;
66575;SDS011;53428;47.686;16.584;2023-11-22T10:51:30;7.72;;;5.78;;
66575;SDS011;53428;47.686;16.584;2023-11-22T10:56:38;7.72;;;5.28;;
66575;SDS011;53428;47.686;16.584;2023-11-22T11:01:42;10.07;;;5.68;;
66575;SDS011;53428;47.686;16.584;2023-11-22T11:06:49;6.28;;;4.45;;
66575;SDS011;53428;47.686;16.584;2023-11-22T11:16:51;5.57;;;3.63;;
66575;SDS011;53428;47.686;16.584;2023-11-22T11:21:54;6.50;;;3.83;;
66575;SDS011;53428;47.686;16.584;2023-11-22T11:26:56;7.97;;;5.28;;
66575;SDS011;53428;47.686;16.584;2023-11-22T11:32:02;6.32;;;4.40;;
66575;SDS011;53428;47.686;16.584;2023-11-22T11:37:02;6.18;;;4.82;;
66575;SDS011;53428;47.686;16.584;2023-11-22T11:42:11;7.93;;;5.13;;
66575;SDS011;53428;47.686;16.584;2023-11-22T11:47:15;9.05;;;5.72;;
66575;SDS011;53428;47.686;16.584;2023-11-22T11:52:14;9.38;;;6.63;;
66575;SDS011;53428;47.686;16.584;2023-11-22T11:57:14;9.93;;;6.55;;
66575;SDS011;53428;47.686;16.584;2023-11-22T12:02:14;8.70;;;6.30;;
66575;SDS011;53428;47.686;16.584;2023-11-22T12:07:15;13.70;;;7.40;;
66575;SDS011;53428;47.686;16.584;2023-11-22T12:12:14;12.00;;;7.57;;
66575;SDS011;53428;47.686;16.584;2023-11-22T12:17:13;14.55;;;8.50;;
66575;SDS011;53428;47.686;16.584;2023-11-22T12:22:13;15.82;;;10.05;;
66575;SDS011;53428;47.686;16.584;2023-11-22T12:27:12;13.20;;;9.63;;
66575;SDS011;53428;47.686;16.584;2023-11-22T12:32:11;14.18;;;8.60;;
66575;SDS011;53428;47.686;16.584;2023-11-22T12:37:12;14.77;;;9.30;;
66575;SDS011;53428;47.686;16.584;2023-11-22T12:42:11;13.95;;;8.65;;
66575;SDS011;53428;47.686;16.584;2023-11-22T12:47:10;12.75;;;7.65;;
66575;SDS011;53428;47.686;16.584;2023-11-22T12:52:10;14.13;;;9.15;;
66575;SDS011;53428;47.686;16.584;2023-11-22T12:57:12;18.23;;;11.77;;
66575;SDS011;53428;47.686;16.584;2023-11-22T13:02:11;20.85;;;10.95;;
66575;SDS011;53428;47.686;16.584;2023-11-22T13:07:10;22.65;;;12.45;;
66575;SDS011;53428;47.686;16.584;2023-11-22T13:12:10;22.65;;;11.45;;
66575;SDS011;53428;47.686;16.584;2023-11-22T13:17:09;21.73;;;12.00;;
66575;SDS011;53428;47.686;16.584;2023-11-22T13:22:09;18.20;;;10.85;;
66575;SDS011;53428;47.686;16.584;2023-11-22T13:27:09;19.75;;;10.60;;
66575;SDS011;53428;47.686;16.584;2023-11-22T13:32:08;18.88;;;11.15;;
66575;SDS011;53428;47.686;16.584;2023-11-22T13:37:08;19.75;;;11.23;;
66575;SDS011;53428;47.686;16.584;2023-11-22T13:42:07;20.02;;;11.63;;
66575;SDS011;53428;47.686;16.584;2023-11-22T13:47:07;20.98;;;13.60;;
66575;SDS011;53428;47.686;16.584;2023-11-22T13:52:06;22.23;;;12.93;;
66575;SDS011;53428;47.686;16.584;2023-11-22T13:57:06;24.50;;;13.73;;
66575;SDS011;53428;47.686;16.584;2023-11-22T14:02:05;17.50;;;10.80;;
66575;SDS011;53428;47.686;16.584;2023-11-22T14:07:04;21.40;;;12.35;;
66575;SDS011;53428;47.686;16.584;2023-11-22T14:12:05;21.98;;;12.15;;
66575;SDS011;53428;47.686;16.584;2023-11-22T14:17:05;20.67;;;12.75;;
66575;SDS011;53428;47.686;16.584;2023-11-22T14:22:04;21.75;;;12.32;;
66575;SDS011;53428;47.686;16.584;2023-11-22T14:27:03;21.80;;;12.95;;
66575;SDS011;53428;47.686;16.584;2023-11-22T14:32:03;28.02;;;13.30;;
66575;SDS011;53428;47.686;16.584;2023-11-22T14:37:02;23.85;;;12.65;;
66575;SDS011;53428;47.686;16.584;2023-11-22T14:42:01;21.30;;;12.63;;
66575;SDS011;53428;47.686;16.584;2023-11-22T14:47:01;24.85;;;12.45;;
66575;SDS011;53428;47.686;16.584;2023-11-22T14:52:05;26.73;;;12.00;;
66575;SDS011;53428;47.686;16.584;2023-11-22T14:57:04;21.33;;;11.88;;
66575;SDS011;53428;47.686;16.584;2023-11-22T15:02:06;30.35;;;15.90;;
66575;SDS011;53428;47.686;16.584;2023-11-22T15:07:10;22.60;;;13.32;;
66575;SDS011;53428;47.686;16.584;2023-11-22T15:12:10;27.95;;;14.32;;
66575;SDS011;53428;47.686;16.584;2023-11-22T15:17:09;24.50;;;13.77;;
66575;SDS011;53428;47.686;16.584;2023-11-22T15:22:09;29.10;;;14.32;;
66575;SDS011;53428;47.686;16.584;2023-11-22T15:27:08;27.70;;;13.70;;
66575;SDS011;53428;47.686;16.584;2023-11-22T15:32:07;40.35;;;16.42;;
66575;SDS011;53428;47.686;16.584;2023-11-22T15:37:07;23.52;;;13.98;;
66575;SDS011;53428;47.686;16.584;2023-11-22T15:42:06;24.13;;;13.73;;
66575;SDS011;53428;47.686;16.584;2023-11-22T15:47:05;24.08;;;13.63;;
66575;SDS011;53428;47.686;16.584;2023-11-22T15:52:07;29.08;;;13.00;;
66575;SDS011;53428;47.686;16.584;2023-11-22T15:57:06;21.63;;;13.95;;
66575;SDS011;53428;47.686;16.584;2023-11-22T16:02:05;35.80;;;13.40;;
66575;SDS011;53428;47.686;16.584;2023-11-22T16:07:06;22.85;;;12.88;;
66575;SDS011;53428;47.686;16.584;2023-11-22T16:12:05;27.05;;;13.73;;
66575;SDS011;53428;47.686;16.584;2023-11-22T16:17:06;20.70;;;12.30;;
66575;SDS011;53428;47.686;16.584;2023-11-22T16:22:06;21.25;;;12.57;;
66575;SDS011;53428;47.686;16.584;2023-11-22T16:27:05;22.42;;;12.95;;
66575;SDS011;53428;47.686;16.584;2023-11-22T16:32:04;23.63;;;12.32;;
66575;SDS011;53428;47.686;16.584;2023-11-22T16:37:04;25.15;;;13.60;;
66575;SDS011;53428;47.686;16.584;2023-11-22T16:42:03;22.42;;;12.90;;
66575;SDS011;53428;47.686;16.584;2023-11-22T16:47:03;26.27;;;15.43;;
66575;SDS011;53428;47.686;16.584;2023-11-22T16:52:03;24.52;;;14.63;;
66575;SDS011;53428;47.686;16.584;2023-11-22T16:57:02;22.10;;;12.90;;
66575;SDS011;53428;47.686;16.584;2023-11-22T17:02:02;30.63;;;15.00;;
66575;SDS011;53428;47.686;16.584;2023-11-22T17:07:02;22.60;;;12.88;;
66575;SDS011;53428;47.686;16.584;2023-11-22T17:12:01;20.52;;;13.00;;
66575;SDS011;53428;47.686;16.584;2023-11-22T17:17:00;26.70;;;15.60;;
66575;SDS011;53428;47.686;16.584;2023-11-22T17:22:00;26.98;;;15.40;;
66575;SDS011;53428;47.686;16.584;2023-11-22T17:27:00;22.58;;;13.93;;
66575;SDS011;53428;47.686;16.584;2023-11-22T17:32:00;27.77;;;13.52;;
66575;SDS011;53428;47.686;16.584;2023-11-22T17:36:59;31.05;;;15.40;;
66575;SDS011;53428;47.686;16.584;2023-11-22T17:41:58;25.13;;;14.35;;
66575;SDS011;53428;47.686;16.584;2023-11-22T17:46:58;30.88;;;15.35;;
66575;SDS011;53428;47.686;16.584;2023-11-22T17:51:57;27.83;;;15.15;;
66575;SDS011;53428;47.686;16.584;2023-11-22T17:56:56;29.42;;;14.55;;
66575;SDS011;53428;47.686;16.584;2023-11-22T18:01:56;28.98;;;15.52;;
66575;SDS011;53428;47.686;16.584;2023-11-22T18:06:56;31.90;;;15.85;;
66575;SDS011;53428;47.686;16.584;2023-11-22T18:11:56;32.47;;;15.38;;
66575;SDS011;53428;47.686;16.584;2023-11-22T18:16:56;30.05;;;16.85;;
66575;SDS011;53428;47.686;16.584;2023-11-22T18:21:55;32.97;;;18.17;;
66575;SDS011;53428;47.686;16.584;2023-11-22T18:26:54;36.72;;;16.48;;
66575;SDS011;53428;47.686;16.584;2023-11-22T18:31:53;34.67;;;17.10;;
66575;SDS011;53428;47.686;16.584;2023-11-22T18:37:00;32.95;;;16.42;;
66575;SDS011;53428;47.686;16.584;2023-11-22T18:41:59;40.92;;;19.38;;
66575;SDS011;53428;47.686;16.584;2023-11-22T18:46:59;32.97;;;17.48;;
66575;SDS011;53428;47.686;16.584;2023-11-22T18:51:58;45.95;;;20.67;;
66575;SDS011;53428;47.686;16.584;2023-11-22T18:56:58;36.88;;;17.80;;
66575;SDS011;53428;47.686;16.584;2023-11-22T19:01:59;43.88;;;19.20;;
66575;SDS011;53428;47.686;16.584;2023-11-22T19:06:59;39.78;;;20.30;;
66575;SDS011;53428;47.686;16.584;2023-11-22T19:11:58;39.38;;;18.13;;
66575;SDS011;53428;47.686;16.584;2023-11-22T19:16:57;44.25;;;19.23;;
66575;SDS011;53428;47.686;16.584;2023-11-22T19:21:57;38.83;;;18.13;;
66575;SDS011;53428;47.686;16.584;2023-11-22T19:26:56;48.70;;;19.83;;
66575;SDS011;53428;47.686;16.584;2023-11-22T19:31:56;33.95;;;16.80;;
66575;SDS011;53428;47.686;16.584;2023-11-22T19:36:57;41.20;;;17.40;;
66575;SDS011;53428;47.686;16.584;2023-11-22T19:41:56;47.10;;;19.92;;
66575;SDS011;53428;47.686;16.584;2023-11-22T19:46:55;43.67;;;19.48;;
66575;SDS011;53428;47.686;16.584;2023-11-22T19:51:54;48.10;;;20.98;;
66575;SDS011;53428;47.686;16.584;2023-11-22T19:56:54;35.97;;;17.38;;
66575;SDS011;53428;47.686;16.584;2023-11-22T20:01:54;46.20;;;18.45;;
66575;SDS011;53428;47.686;16.584;2023-11-22T20:06:53;36.65;;;18.08;;
66575;SDS011;53428;47.686;16.584;2023-11-22T20:11:53;42.45;;;18.80;;
66575;SDS011;53428;47.686;16.584;2023-11-22T20:16:52;47.53;;;19.38;;
66575;SDS011;53428;47.686;16.584;2023-11-22T20:21:52;37.75;;;16.90;;
66575;SDS011;53428;47.686;16.584;2023-11-22T20:26:51;37.45;;;17.55;;
66575;SDS011;53428;47.686;16.584;2023-11-22T20:31:50;43.08;;;17.83;;
66575;SDS011;53428;47.686;16.584;2023-11-22T20:36:49;39.92;;;18.27;;
66575;SDS011;53428;47.686;16.584;2023-11-22T20:41:49;47.13;;;19.92;;
66575;SDS011;53428;47.686;16.584;2023-11-22T20:46:48;38.65;;;17.27;;
66575;SDS011;53428;47.686;16.584;2023-11-22T20:51:47;40.92;;;18.35;;
66575;SDS011;53428;47.686;16.584;2023-11-22T20:56:47;41.85;;;18.73;;
66575;SDS011;53428;47.686;16.584;2023-11-22T21:01:47;42.13;;;19.77;;
66575;SDS011;53428;47.686;16.584;2023-11-22T21:06:47;46.33;;;20.30;;
66575;SDS011;53428;47.686;16.584;2023-11-22T21:11:47;42.03;;;18.58;;
66575;SDS011;53428;47.686;16.584;2023-11-22T21:16:46;46.72;;;20.90;;
66575;SDS011;53428;47.686;16.584;2023-11-22T21:21:45;42.63;;;19.20;;
66575;SDS011;53428;47.686;16.584;2023-11-22T21:26:45;42.70;;;16.77;;
66575;SDS011;53428;47.686;16.584;2023-11-22T21:31:44;40.17;;;18.83;;
66575;SDS011;53428;47.686;16.584;2023-11-22T21:36:43;42.95;;;18.98;;
66575;SDS011;53428;47.686;16.584;2023-11-22T21:41:47;40.63;;;17.98;;
66575;SDS011;53428;47.686;16.584;2023-11-22T21:46:48;44.90;;;19.65;;
66575;SDS011;53428;47.686;16.584;2023-11-22T21:51:47;43.35;;;18.48;;
66575;SDS011;53428;47.686;16.584;2023-11-22T21:56:46;41.92;;;20.30;;
66575;SDS011;53428;47.686;16.584;2023-11-22T22:01:48;41.03;;;18.27;;
66575;SDS011;53428;47.686;16.584;2023-11-22T22:06:47;42.80;;;18.60;;
66575;SDS011;53428;47.686;16.584;2023-11-22T22:11:46;44.28;;;19.00;;
66575;SDS011;53428;47.686;16.584;2023-11-22T22:16:45;50.35;;;18.70;;
66575;SDS011;53428;47.686;16.584;2023-11-22T22:21:45;42.72;;;18.20;;
66575;SDS011;53428;47.686;16.584;2023-11-22T22:26:45;42.75;;;18.77;;
66575;SDS011;53428;47.686;16.584;2023-11-22T22:31:44;42.08;;;18.55;;
66575;SDS011;53428;47.686;16.584;2023-11-22T22:36:43;40.10;;;18.25;;
66575;SDS011;53428;47.686;16.584;2023-11-22T22:41:43;47.05;;;19.85;;
66575;SDS011;53428;47.686;16.584;2023-11-22T22:46:42;50.78;;;20.55;;
66575;SDS011;53428;47.686;16.584;2023-11-22T22:51:41;47.72;;;21.05;;
66575;SDS011;53428;47.686;16.584;2023-11-22T22:56:41;41.13;;;19.92;;
66575;SDS011;53428;47.686;16.584;2023-11-22T23:01:40;60.05;;;22.40;;
66575;SDS011;53428;47.686;16.584;2023-11-22T23:06:39;56.00;;;21.92;;
66575;SDS011;53428;47.686;16.584;2023-11-22T23:11:39;55.00;;;23.63;;
66575;SDS011;53428;47.686;16.584;2023-11-22T23:16:38;42.25;;;19.58;;
66575;SDS011;53428;47.686;16.584;2023-11-22T23:21:37;54.75;;;22.73;;
66575;SDS011;53428;47.686;16.584;2023-11-22T23:26:36;43.00;;;19.73;;
66575;SDS011;53428;47.686;16.584;2023-11-22T23:31:36;48.45;;;19.70;;
66575;SDS011;53428;47.686;16.584;2023-11-22T23:36:38;47.78;;;20.33;;
66575;SDS011;53428;47.686;16.584;2023-11-22T23:41:40;45.60;;;17.90;;
66575;SDS011;53428;47.686;16.584;2023-11-22T23:46:39;52.00;;;19.60;;
66575;SDS011;53428;47.686;16.584;2023-11-22T23:51:38;56.97;;;20.83;;
66575;SDS011;53428;47.686;16.584;2023-11-22T23:56:38;48.47;;;20.50;;
